Terminal Aerodrome Forecast
Issued by NWS

Home | Current Version | Previous Version | Text Only | Print | Product List | Glossary On
Versions: 1 2 3 4 5 6 7 8 9 10 11 12 13 14
000
FTUS46 KSEW 240550
TAFHQM
TAF
KHQM 240550Z 2406/2506 15005KT 6SM -SHRA BR SCT015 OVC025
     FM240900 08005KT 4SM -RA BR SCT008 BKN012 OVC020
     FM241900 29007KT P6SM VCSH SCT015 BKN040
     FM242200 26012KT P6SM SCT020
     FM250400 23006KT P6SM SCT012 BKN020=

USA.gov is the U.S. government's official web portal to all federal, state and local government web resources and services.